Littleton, Iowa
Current Conditions -  °F | °C
As of 2:15 AM on Monday 24 Nov 2014 (Local Time) from KIIB Reporting Station
Unknown Precip Unknown Precip  
Wind Chill: 20°   Ceiling: 1100
Heat Index: 32°   Visibility: 5mi
Dew Point: 32°   Wind: 18mph
Humidity: 100%   Direction: 320°NW
Pressure: 29.24"   Gusts: 29mph
Location:  42.4576°N, 92.0575°W
Report Text: KIIB 240815Z AUTO 32016G25KT 5SM UP SCT007 OVC011 00/00 A2924 RMK AO2 P0001
Loading
Personal Weather Stations






























Interactive Weather Map New forecast layout! Learn more

10-Day Weather Forecast

Advertisements
Track Severe Weather on mobile